sensor_id;sensor_type;location;lat;lon;timestamp;temperature;humidity
30097;DHT22;16915;51.466;3.610;2024-02-23T00:01:28;6.00;99.90
30097;DHT22;16915;51.466;3.610;2024-02-23T00:03:54;6.10;99.90
30097;DHT22;16915;51.466;3.610;2024-02-23T00:06:20;6.00;99.90
30097;DHT22;16915;51.466;3.610;2024-02-23T00:08:46;6.00;99.90
30097;DHT22;16915;51.466;3.610;2024-02-23T00:11:12;6.00;99.90
30097;DHT22;16915;51.466;3.610;2024-02-23T00:13:37;5.90;99.90
30097;DHT22;16915;51.466;3.610;2024-02-23T00:16:03;5.90;99.90
30097;DHT22;16915;51.466;3.610;2024-02-23T00:18:29;6.00;99.90
30097;DHT22;16915;51.466;3.610;2024-02-23T00:20:55;5.90;99.90
30097;DHT22;16915;51.466;3.610;2024-02-23T00:23:21;6.00;99.90
30097;DHT22;16915;51.466;3.610;2024-02-23T00:25:47;6.10;99.90
30097;DHT22;16915;51.466;3.610;2024-02-23T00:28:13;6.10;99.90
30097;DHT22;16915;51.466;3.610;2024-02-23T00:30:38;6.10;99.90
30097;DHT22;16915;51.466;3.610;2024-02-23T00:33:04;6.20;99.90
30097;DHT22;16915;51.466;3.610;2024-02-23T00:35:30;6.20;99.90
30097;DHT22;16915;51.466;3.610;2024-02-23T00:37:55;6.20;99.90
30097;DHT22;16915;51.466;3.610;2024-02-23T00:40:21;6.20;99.90
30097;DHT22;16915;51.466;3.610;2024-02-23T00:42:48;6.20;99.90
30097;DHT22;16915;51.466;3.610;2024-02-23T00:45:14;6.20;99.90
30097;DHT22;16915;51.466;3.610;2024-02-23T00:47:40;6.10;99.90
30097;DHT22;16915;51.466;3.610;2024-02-23T00:50:06;6.00;99.90
30097;DHT22;16915;51.466;3.610;2024-02-23T00:52:31;5.90;99.90
30097;DHT22;16915;51.466;3.610;2024-02-23T00:54:58;5.80;99.90
30097;DHT22;16915;51.466;3.610;2024-02-23T00:57:23;5.80;99.90
30097;DHT22;16915;51.466;3.610;2024-02-23T00:59:55;5.80;99.90
30097;DHT22;16915;51.466;3.610;2024-02-23T01:02:21;5.70;99.90
30097;DHT22;16915;51.466;3.610;2024-02-23T01:04:47;5.70;99.90
30097;DHT22;16915;51.466;3.610;2024-02-23T01:07:12;5.60;99.90
30097;DHT22;16915;51.466;3.610;2024-02-23T01:09:38;5.60;99.90
30097;DHT22;16915;51.466;3.610;2024-02-23T01:12:04;5.60;99.90
30097;DHT22;16915;51.466;3.610;2024-02-23T01:14:29;5.60;99.90
30097;DHT22;16915;51.466;3.610;2024-02-23T01:16:55;5.70;99.90
30097;DHT22;16915;51.466;3.610;2024-02-23T01:19:20;5.70;99.90
30097;DHT22;16915;51.466;3.610;2024-02-23T01:21:46;5.60;99.90
30097;DHT22;16915;51.466;3.610;2024-02-23T01:24:12;5.60;99.90
30097;DHT22;16915;51.466;3.610;2024-02-23T01:26:37;5.60;99.90
30097;DHT22;16915;51.466;3.610;2024-02-23T01:29:03;5.60;99.90
30097;DHT22;16915;51.466;3.610;2024-02-23T01:31:29;5.60;99.90
30097;DHT22;16915;51.466;3.610;2024-02-23T01:33:54;5.60;99.90
30097;DHT22;16915;51.466;3.610;2024-02-23T01:36:20;5.60;99.90
30097;DHT22;16915;51.466;3.610;2024-02-23T01:38:45;5.60;99.90
30097;DHT22;16915;51.466;3.610;2024-02-23T01:41:12;5.60;99.90
30097;DHT22;16915;51.466;3.610;2024-02-23T01:43:37;5.60;99.90
30097;DHT22;16915;51.466;3.610;2024-02-23T01:46:03;5.60;99.90
30097;DHT22;16915;51.466;3.610;2024-02-23T01:48:30;5.50;99.90
30097;DHT22;16915;51.466;3.610;2024-02-23T01:50:56;5.50;99.90
30097;DHT22;16915;51.466;3.610;2024-02-23T01:53:22;5.40;99.90
30097;DHT22;16915;51.466;3.610;2024-02-23T01:55:50;5.40;99.90
30097;DHT22;16915;51.466;3.610;2024-02-23T01:58:17;5.40;99.90
30097;DHT22;16915;51.466;3.610;2024-02-23T02:00:43;5.30;99.90
30097;DHT22;16915;51.466;3.610;2024-02-23T02:03:08;5.30;99.90
30097;DHT22;16915;51.466;3.610;2024-02-23T02:05:36;5.20;99.90
30097;DHT22;16915;51.466;3.610;2024-02-23T02:08:02;5.20;99.90
30097;DHT22;16915;51.466;3.610;2024-02-23T02:10:28;5.10;99.90
30097;DHT22;16915;51.466;3.610;2024-02-23T02:12:54;5.10;99.90
30097;DHT22;16915;51.466;3.610;2024-02-23T02:15:19;5.10;99.90
30097;DHT22;16915;51.466;3.610;2024-02-23T02:17:47;5.00;99.90
30097;DHT22;16915;51.466;3.610;2024-02-23T02:20:13;5.00;99.90
30097;DHT22;16915;51.466;3.610;2024-02-23T02:22:39;5.00;99.90
30097;DHT22;16915;51.466;3.610;2024-02-23T02:25:06;5.00;99.90
30097;DHT22;16915;51.466;3.610;2024-02-23T02:27:32;4.90;99.90
30097;DHT22;16915;51.466;3.610;2024-02-23T02:29:57;4.90;99.90
30097;DHT22;16915;51.466;3.610;2024-02-23T02:32:23;4.90;99.90
30097;DHT22;16915;51.466;3.610;2024-02-23T02:34:49;4.90;99.90
30097;DHT22;16915;51.466;3.610;2024-02-23T02:37:15;4.90;99.90
30097;DHT22;16915;51.466;3.610;2024-02-23T02:39:41;4.90;99.90
30097;DHT22;16915;51.466;3.610;2024-02-23T02:42:06;4.80;99.90
30097;DHT22;16915;51.466;3.610;2024-02-23T02:44:32;4.80;99.90
30097;DHT22;16915;51.466;3.610;2024-02-23T02:46:58;4.90;99.90
30097;DHT22;16915;51.466;3.610;2024-02-23T02:49:23;4.90;99.90
30097;DHT22;16915;51.466;3.610;2024-02-23T02:51:49;5.00;99.90
30097;DHT22;16915;51.466;3.610;2024-02-23T02:54:15;5.00;99.90
30097;DHT22;16915;51.466;3.610;2024-02-23T02:56:47;5.00;99.90
30097;DHT22;16915;51.466;3.610;2024-02-23T02:59:12;5.00;99.90
30097;DHT22;16915;51.466;3.610;2024-02-23T03:01:39;5.10;99.90
30097;DHT22;16915;51.466;3.610;2024-02-23T03:04:05;5.00;99.90
30097;DHT22;16915;51.466;3.610;2024-02-23T03:06:30;5.10;99.90
30097;DHT22;16915;51.466;3.610;2024-02-23T03:08:56;5.10;99.90
30097;DHT22;16915;51.466;3.610;2024-02-23T03:11:21;5.10;99.90
30097;DHT22;16915;51.466;3.610;2024-02-23T03:13:47;5.10;99.90
30097;DHT22;16915;51.466;3.610;2024-02-23T03:16:17;5.20;99.90
30097;DHT22;16915;51.466;3.610;2024-02-23T03:18:43;5.20;99.90
30097;DHT22;16915;51.466;3.610;2024-02-23T03:21:08;5.20;99.90
30097;DHT22;16915;51.466;3.610;2024-02-23T03:23:38;5.30;99.90
30097;DHT22;16915;51.466;3.610;2024-02-23T03:26:03;5.40;99.90
30097;DHT22;16915;51.466;3.610;2024-02-23T03:28:29;5.40;99.90
30097;DHT22;16915;51.466;3.610;2024-02-23T03:30:54;5.40;99.90
30097;DHT22;16915;51.466;3.610;2024-02-23T03:33:20;5.40;99.90
30097;DHT22;16915;51.466;3.610;2024-02-23T03:35:45;5.40;99.90
30097;DHT22;16915;51.466;3.610;2024-02-23T03:38:11;5.40;99.90
30097;DHT22;16915;51.466;3.610;2024-02-23T03:40:36;5.40;99.90
30097;DHT22;16915;51.466;3.610;2024-02-23T03:43:03;5.40;99.90
30097;DHT22;16915;51.466;3.610;2024-02-23T03:45:28;5.40;99.90
30097;DHT22;16915;51.466;3.610;2024-02-23T03:47:54;5.40;99.90
30097;DHT22;16915;51.466;3.610;2024-02-23T03:50:20;5.40;99.90
30097;DHT22;16915;51.466;3.610;2024-02-23T03:52:45;5.40;99.90
30097;DHT22;16915;51.466;3.610;2024-02-23T03:55:11;5.50;99.90
30097;DHT22;16915;51.466;3.610;2024-02-23T03:57:37;5.50;99.90
30097;DHT22;16915;51.466;3.610;2024-02-23T04:00:03;5.40;99.90
30097;DHT22;16915;51.466;3.610;2024-02-23T04:02:29;5.40;99.90
30097;DHT22;16915;51.466;3.610;2024-02-23T04:04:55;5.40;99.90
30097;DHT22;16915;51.466;3.610;2024-02-23T04:07:20;5.40;99.90
30097;DHT22;16915;51.466;3.610;2024-02-23T04:09:46;5.40;99.90
30097;DHT22;16915;51.466;3.610;2024-02-23T04:12:18;5.40;99.90
30097;DHT22;16915;51.466;3.610;2024-02-23T04:14:44;5.40;99.90
30097;DHT22;16915;51.466;3.610;2024-02-23T04:17:11;5.50;99.90
30097;DHT22;16915;51.466;3.610;2024-02-23T04:19:41;5.50;99.90
30097;DHT22;16915;51.466;3.610;2024-02-23T04:22:07;5.50;99.90
30097;DHT22;16915;51.466;3.610;2024-02-23T04:24:38;5.50;99.90
30097;DHT22;16915;51.466;3.610;2024-02-23T04:27:05;5.40;99.90
30097;DHT22;16915;51.466;3.610;2024-02-23T04:29:30;5.50;99.90
30097;DHT22;16915;51.466;3.610;2024-02-23T04:31:57;5.50;99.90
30097;DHT22;16915;51.466;3.610;2024-02-23T04:34:23;5.50;99.90
30097;DHT22;16915;51.466;3.610;2024-02-23T04:36:49;5.50;99.90
30097;DHT22;16915;51.466;3.610;2024-02-23T04:39:14;5.50;99.90
30097;DHT22;16915;51.466;3.610;2024-02-23T04:41:40;5.50;99.90
30097;DHT22;16915;51.466;3.610;2024-02-23T04:44:05;5.50;99.90
30097;DHT22;16915;51.466;3.610;2024-02-23T04:46:31;5.50;99.90
30097;DHT22;16915;51.466;3.610;2024-02-23T04:48:57;5.50;99.90
30097;DHT22;16915;51.466;3.610;2024-02-23T04:51:22;5.50;99.90
30097;DHT22;16915;51.466;3.610;2024-02-23T04:53:49;5.50;99.90
30097;DHT22;16915;51.466;3.610;2024-02-23T04:56:15;5.60;99.90
30097;DHT22;16915;51.466;3.610;2024-02-23T04:58:40;5.50;99.90
30097;DHT22;16915;51.466;3.610;2024-02-23T05:01:08;5.50;99.90
30097;DHT22;16915;51.466;3.610;2024-02-23T05:03:34;5.50;99.90
30097;DHT22;16915;51.466;3.610;2024-02-23T05:06:00;5.40;99.90
30097;DHT22;16915;51.466;3.610;2024-02-23T05:08:26;5.40;99.90
30097;DHT22;16915;51.466;3.610;2024-02-23T05:10:53;5.40;99.90
30097;DHT22;16915;51.466;3.610;2024-02-23T05:13:19;5.40;99.90
30097;DHT22;16915;51.466;3.610;2024-02-23T05:15:44;5.40;99.90
30097;DHT22;16915;51.466;3.610;2024-02-23T05:18:10;5.50;99.90
30097;DHT22;16915;51.466;3.610;2024-02-23T05:20:35;5.40;99.90
30097;DHT22;16915;51.466;3.610;2024-02-23T05:23:01;5.40;99.90
30097;DHT22;16915;51.466;3.610;2024-02-23T05:25:27;5.40;99.90
30097;DHT22;16915;51.466;3.610;2024-02-23T05:27:53;5.40;99.90
30097;DHT22;16915;51.466;3.610;2024-02-23T05:30:19;5.40;99.90
30097;DHT22;16915;51.466;3.610;2024-02-23T05:32:44;5.50;99.90
30097;DHT22;16915;51.466;3.610;2024-02-23T05:35:10;5.50;99.90
30097;DHT22;16915;51.466;3.610;2024-02-23T05:37:36;5.50;99.90
30097;DHT22;16915;51.466;3.610;2024-02-23T05:40:03;5.50;99.90
30097;DHT22;16915;51.466;3.610;2024-02-23T05:42:35;5.50;99.90
30097;DHT22;16915;51.466;3.610;2024-02-23T05:45:01;5.60;99.90
30097;DHT22;16915;51.466;3.610;2024-02-23T05:47:27;5.50;99.90
30097;DHT22;16915;51.466;3.610;2024-02-23T05:49:52;5.50;99.90
30097;DHT22;16915;51.466;3.610;2024-02-23T05:52:18;5.50;99.90
30097;DHT22;16915;51.466;3.610;2024-02-23T05:54:44;5.40;99.90
30097;DHT22;16915;51.466;3.610;2024-02-23T05:57:09;5.40;99.90
30097;DHT22;16915;51.466;3.610;2024-02-23T05:59:35;5.40;99.90
30097;DHT22;16915;51.466;3.610;2024-02-23T06:02:00;5.40;99.90
30097;DHT22;16915;51.466;3.610;2024-02-23T06:04:26;5.40;99.90
30097;DHT22;16915;51.466;3.610;2024-02-23T06:06:52;5.40;99.90
30097;DHT22;16915;51.466;3.610;2024-02-23T06:09:18;5.40;99.90
30097;DHT22;16915;51.466;3.610;2024-02-23T06:11:44;5.40;99.90
30097;DHT22;16915;51.466;3.610;2024-02-23T06:14:10;5.40;99.90
30097;DHT22;16915;51.466;3.610;2024-02-23T06:16:36;5.40;99.90
30097;DHT22;16915;51.466;3.610;2024-02-23T06:19:02;5.40;99.90
30097;DHT22;16915;51.466;3.610;2024-02-23T06:21:29;5.40;99.90
30097;DHT22;16915;51.466;3.610;2024-02-23T06:23:54;5.40;99.90
30097;DHT22;16915;51.466;3.610;2024-02-23T06:26:21;5.40;99.90
30097;DHT22;16915;51.466;3.610;2024-02-23T06:28:46;5.40;99.90
30097;DHT22;16915;51.466;3.610;2024-02-23T06:31:14;5.40;99.90
30097;DHT22;16915;51.466;3.610;2024-02-23T06:33:40;5.30;99.90
30097;DHT22;16915;51.466;3.610;2024-02-23T06:36:06;5.20;99.90
30097;DHT22;16915;51.466;3.610;2024-02-23T06:38:33;5.20;99.90
30097;DHT22;16915;51.466;3.610;2024-02-23T06:40:59;5.10;99.90
30097;DHT22;16915;51.466;3.610;2024-02-23T06:43:24;5.10;99.90
30097;DHT22;16915;51.466;3.610;2024-02-23T06:45:50;5.10;99.90
30097;DHT22;16915;51.466;3.610;2024-02-23T06:48:16;5.10;99.90
30097;DHT22;16915;51.466;3.610;2024-02-23T06:50:42;5.10;99.90
30097;DHT22;16915;51.466;3.610;2024-02-23T06:53:07;5.20;99.90
30097;DHT22;16915;51.466;3.610;2024-02-23T06:55:34;5.20;99.90
30097;DHT22;16915;51.466;3.610;2024-02-23T06:58:00;5.20;99.90
30097;DHT22;16915;51.466;3.610;2024-02-23T07:00:25;5.30;99.90
30097;DHT22;16915;51.466;3.610;2024-02-23T07:02:51;5.20;99.90
30097;DHT22;16915;51.466;3.610;2024-02-23T07:05:16;5.30;99.90
30097;DHT22;16915;51.466;3.610;2024-02-23T07:07:42;5.30;99.90
30097;DHT22;16915;51.466;3.610;2024-02-23T07:10:08;5.30;99.90
30097;DHT22;16915;51.466;3.610;2024-02-23T07:12:34;5.20;99.90
30097;DHT22;16915;51.466;3.610;2024-02-23T07:15:00;5.20;99.90
30097;DHT22;16915;51.466;3.610;2024-02-23T07:17:26;5.10;99.90
30097;DHT22;16915;51.466;3.610;2024-02-23T07:19:51;5.10;99.90
30097;DHT22;16915;51.466;3.610;2024-02-23T07:22:18;5.10;99.90
30097;DHT22;16915;51.466;3.610;2024-02-23T07:24:44;5.10;99.90
30097;DHT22;16915;51.466;3.610;2024-02-23T07:27:10;5.10;99.90
30097;DHT22;16915;51.466;3.610;2024-02-23T07:29:36;5.10;99.90
30097;DHT22;16915;51.466;3.610;2024-02-23T07:32:02;5.10;99.90
30097;DHT22;16915;51.466;3.610;2024-02-23T07:34:28;5.10;99.90
30097;DHT22;16915;51.466;3.610;2024-02-23T07:36:54;5.10;99.90
30097;DHT22;16915;51.466;3.610;2024-02-23T07:39:20;5.10;99.90
30097;DHT22;16915;51.466;3.610;2024-02-23T07:41:45;5.10;99.90
30097;DHT22;16915;51.466;3.610;2024-02-23T07:44:11;5.20;99.90
30097;DHT22;16915;51.466;3.610;2024-02-23T07:46:37;5.20;99.90
30097;DHT22;16915;51.466;3.610;2024-02-23T07:49:04;5.20;99.90
30097;DHT22;16915;51.466;3.610;2024-02-23T07:51:29;5.20;99.90
30097;DHT22;16915;51.466;3.610;2024-02-23T07:53:55;5.30;99.90
30097;DHT22;16915;51.466;3.610;2024-02-23T07:56:21;5.30;99.90
30097;DHT22;16915;51.466;3.610;2024-02-23T07:58:46;5.30;99.90
30097;DHT22;16915;51.466;3.610;2024-02-23T08:01:13;5.30;99.90
30097;DHT22;16915;51.466;3.610;2024-02-23T08:03:40;5.30;99.90
30097;DHT22;16915;51.466;3.610;2024-02-23T08:06:06;5.40;99.90
30097;DHT22;16915;51.466;3.610;2024-02-23T08:08:31;5.40;99.90
30097;DHT22;16915;51.466;3.610;2024-02-23T08:11:00;5.40;99.90
30097;DHT22;16915;51.466;3.610;2024-02-23T08:13:26;5.40;99.90
30097;DHT22;16915;51.466;3.610;2024-02-23T08:15:52;5.50;99.90
30097;DHT22;16915;51.466;3.610;2024-02-23T08:18:17;5.50;99.90
30097;DHT22;16915;51.466;3.610;2024-02-23T08:20:43;5.60;99.90
30097;DHT22;16915;51.466;3.610;2024-02-23T08:23:08;5.60;99.90
30097;DHT22;16915;51.466;3.610;2024-02-23T08:25:35;5.60;99.90
30097;DHT22;16915;51.466;3.610;2024-02-23T08:28:01;5.70;99.90
30097;DHT22;16915;51.466;3.610;2024-02-23T08:30:27;5.70;99.90
30097;DHT22;16915;51.466;3.610;2024-02-23T08:32:52;5.70;99.90
30097;DHT22;16915;51.466;3.610;2024-02-23T08:35:18;5.70;99.90
30097;DHT22;16915;51.466;3.610;2024-02-23T08:37:44;5.70;99.90
30097;DHT22;16915;51.466;3.610;2024-02-23T08:40:10;5.70;99.90
30097;DHT22;16915;51.466;3.610;2024-02-23T08:42:35;5.70;99.90
30097;DHT22;16915;51.466;3.610;2024-02-23T08:45:01;5.70;99.90
30097;DHT22;16915;51.466;3.610;2024-02-23T08:47:27;5.80;99.90
30097;DHT22;16915;51.466;3.610;2024-02-23T08:49:57;5.70;99.90
30097;DHT22;16915;51.466;3.610;2024-02-23T08:52:23;5.70;99.90
30097;DHT22;16915;51.466;3.610;2024-02-23T08:54:48;5.70;99.90
30097;DHT22;16915;51.466;3.610;2024-02-23T08:57:14;5.70;99.90
30097;DHT22;16915;51.466;3.610;2024-02-23T08:59:44;5.70;99.90
30097;DHT22;16915;51.466;3.610;2024-02-23T09:02:10;5.70;99.90
30097;DHT22;16915;51.466;3.610;2024-02-23T09:04:35;5.70;99.90
30097;DHT22;16915;51.466;3.610;2024-02-23T09:07:01;5.70;99.90
30097;DHT22;16915;51.466;3.610;2024-02-23T09:09:27;5.70;99.90
30097;DHT22;16915;51.466;3.610;2024-02-23T09:11:52;5.80;99.90
30097;DHT22;16915;51.466;3.610;2024-02-23T09:14:18;5.80;99.90
30097;DHT22;16915;51.466;3.610;2024-02-23T09:16:43;5.90;99.90
30097;DHT22;16915;51.466;3.610;2024-02-23T09:19:11;6.00;99.90
30097;DHT22;16915;51.466;3.610;2024-02-23T09:21:37;6.00;99.90
30097;DHT22;16915;51.466;3.610;2024-02-23T09:24:03;5.90;99.90
30097;DHT22;16915;51.466;3.610;2024-02-23T09:26:29;6.00;99.90
30097;DHT22;16915;51.466;3.610;2024-02-23T09:28:54;6.00;99.90
30097;DHT22;16915;51.466;3.610;2024-02-23T09:31:20;6.00;99.90
30097;DHT22;16915;51.466;3.610;2024-02-23T09:33:45;6.00;99.90
30097;DHT22;16915;51.466;3.610;2024-02-23T09:36:12;6.10;99.90
30097;DHT22;16915;51.466;3.610;2024-02-23T09:38:37;6.10;99.90
30097;DHT22;16915;51.466;3.610;2024-02-23T09:41:03;6.10;99.90
30097;DHT22;16915;51.466;3.610;2024-02-23T09:43:29;6.10;99.90
30097;DHT22;16915;51.466;3.610;2024-02-23T09:45:59;6.10;99.90
30097;DHT22;16915;51.466;3.610;2024-02-23T09:48:25;6.10;99.90
30097;DHT22;16915;51.466;3.610;2024-02-23T09:50:52;6.10;99.90
30097;DHT22;16915;51.466;3.610;2024-02-23T09:53:19;6.10;99.90
30097;DHT22;16915;51.466;3.610;2024-02-23T09:55:47;6.20;99.90
30097;DHT22;16915;51.466;3.610;2024-02-23T09:58:14;6.30;99.90
30097;DHT22;16915;51.466;3.610;2024-02-23T10:00:42;6.40;99.90
30097;DHT22;16915;51.466;3.610;2024-02-23T10:03:08;6.50;99.90
30097;DHT22;16915;51.466;3.610;2024-02-23T10:05:34;6.70;99.90
30097;DHT22;16915;51.466;3.610;2024-02-23T10:07:59;6.90;99.90
30097;DHT22;16915;51.466;3.610;2024-02-23T10:10:35;6.90;99.90
30097;DHT22;16915;51.466;3.610;2024-02-23T10:13:01;7.10;99.90
30097;DHT22;16915;51.466;3.610;2024-02-23T10:15:29;7.10;99.90
30097;DHT22;16915;51.466;3.610;2024-02-23T10:17:54;7.30;99.90
30097;DHT22;16915;51.466;3.610;2024-02-23T10:20:20;7.40;99.90
30097;DHT22;16915;51.466;3.610;2024-02-23T10:22:46;7.30;99.90
30097;DHT22;16915;51.466;3.610;2024-02-23T10:25:12;7.30;99.90
30097;DHT22;16915;51.466;3.610;2024-02-23T10:27:37;7.20;99.90
30097;DHT22;16915;51.466;3.610;2024-02-23T10:30:03;7.20;99.90
30097;DHT22;16915;51.466;3.610;2024-02-23T10:32:29;7.40;99.90
30097;DHT22;16915;51.466;3.610;2024-02-23T10:34:59;7.40;99.90
30097;DHT22;16915;51.466;3.610;2024-02-23T10:37:26;7.70;99.90
30097;DHT22;16915;51.466;3.610;2024-02-23T10:39:57;7.90;99.90
30097;DHT22;16915;51.466;3.610;2024-02-23T10:42:24;8.00;99.90
30097;DHT22;16915;51.466;3.610;2024-02-23T10:44:52;7.90;99.90
30097;DHT22;16915;51.466;3.610;2024-02-23T10:47:21;7.90;99.90
30097;DHT22;16915;51.466;3.610;2024-02-23T10:49:47;7.80;99.90
30097;DHT22;16915;51.466;3.610;2024-02-23T10:52:13;7.80;99.90
30097;DHT22;16915;51.466;3.610;2024-02-23T10:54:40;7.90;99.90
30097;DHT22;16915;51.466;3.610;2024-02-23T10:57:09;7.90;99.90
30097;DHT22;16915;51.466;3.610;2024-02-23T10:59:35;7.80;99.90
30097;DHT22;16915;51.466;3.610;2024-02-23T11:02:01;7.90;99.90
30097;DHT22;16915;51.466;3.610;2024-02-23T11:04:28;8.10;99.90
30097;DHT22;16915;51.466;3.610;2024-02-23T11:06:55;8.40;99.90
30097;DHT22;16915;51.466;3.610;2024-02-23T11:09:24;8.40;99.90
30097;DHT22;16915;51.466;3.610;2024-02-23T11:11:57;8.40;99.90
30097;DHT22;16915;51.466;3.610;2024-02-23T11:14:31;8.40;99.90
30097;DHT22;16915;51.466;3.610;2024-02-23T11:16:58;8.70;99.90
30097;DHT22;16915;51.466;3.610;2024-02-23T11:19:36;9.00;99.90
30097;DHT22;16915;51.466;3.610;2024-02-23T11:22:02;9.30;99.90
30097;DHT22;16915;51.466;3.610;2024-02-23T11:24:32;9.40;99.90
30097;DHT22;16915;51.466;3.610;2024-02-23T11:26:58;9.50;99.90
30097;DHT22;16915;51.466;3.610;2024-02-23T11:29:26;9.30;99.90
30097;DHT22;16915;51.466;3.610;2024-02-23T11:31:53;9.00;99.90
30097;DHT22;16915;51.466;3.610;2024-02-23T11:34:27;8.80;99.90
30097;DHT22;16915;51.466;3.610;2024-02-23T11:36:53;8.80;99.90
30097;DHT22;16915;51.466;3.610;2024-02-23T11:39:22;8.80;99.90
30097;DHT22;16915;51.466;3.610;2024-02-23T11:41:49;8.70;99.90
30097;DHT22;16915;51.466;3.610;2024-02-23T11:44:15;8.60;99.90
30097;DHT22;16915;51.466;3.610;2024-02-23T11:46:43;8.60;99.90
30097;DHT22;16915;51.466;3.610;2024-02-23T11:49:08;8.50;99.90
30097;DHT22;16915;51.466;3.610;2024-02-23T11:51:35;8.40;99.90
30097;DHT22;16915;51.466;3.610;2024-02-23T11:54:01;8.40;99.90
30097;DHT22;16915;51.466;3.610;2024-02-23T11:56:26;8.50;99.90
30097;DHT22;16915;51.466;3.610;2024-02-23T11:58:54;8.50;99.90
30097;DHT22;16915;51.466;3.610;2024-02-23T12:01:20;8.40;99.90
30097;DHT22;16915;51.466;3.610;2024-02-23T12:03:46;8.30;99.90
30097;DHT22;16915;51.466;3.610;2024-02-23T12:06:11;8.20;99.90
30097;DHT22;16915;51.466;3.610;2024-02-23T12:08:38;8.10;99.90
30097;DHT22;16915;51.466;3.610;2024-02-23T12:11:08;8.10;99.90
30097;DHT22;16915;51.466;3.610;2024-02-23T12:13:38;8.10;99.90
30097;DHT22;16915;51.466;3.610;2024-02-23T12:16:04;8.10;99.90
30097;DHT22;16915;51.466;3.610;2024-02-23T12:18:33;8.10;99.90
30097;DHT22;16915;51.466;3.610;2024-02-23T12:21:00;8.20;99.90
30097;DHT22;16915;51.466;3.610;2024-02-23T12:23:27;8.30;99.90
30097;DHT22;16915;51.466;3.610;2024-02-23T12:25:59;8.40;99.90
30097;DHT22;16915;51.466;3.610;2024-02-23T12:28:26;8.60;99.90
30097;DHT22;16915;51.466;3.610;2024-02-23T12:31:02;8.90;99.90
30097;DHT22;16915;51.466;3.610;2024-02-23T12:33:29;9.00;99.90
30097;DHT22;16915;51.466;3.610;2024-02-23T12:35:55;9.10;99.90
30097;DHT22;16915;51.466;3.610;2024-02-23T12:38:22;9.10;99.90
30097;DHT22;16915;51.466;3.610;2024-02-23T12:40:47;9.20;99.90
30097;DHT22;16915;51.466;3.610;2024-02-23T12:43:13;9.20;99.90
30097;DHT22;16915;51.466;3.610;2024-02-23T12:45:39;9.00;99.90
30097;DHT22;16915;51.466;3.610;2024-02-23T12:48:05;8.70;99.90
30097;DHT22;16915;51.466;3.610;2024-02-23T12:50:31;8.60;99.90
30097;DHT22;16915;51.466;3.610;2024-02-23T12:52:56;8.50;99.90
30097;DHT22;16915;51.466;3.610;2024-02-23T12:55:23;8.40;99.90
30097;DHT22;16915;51.466;3.610;2024-02-23T12:57:49;8.40;99.90
30097;DHT22;16915;51.466;3.610;2024-02-23T13:00:15;8.40;99.90
30097;DHT22;16915;51.466;3.610;2024-02-23T13:02:41;8.30;99.90
30097;DHT22;16915;51.466;3.610;2024-02-23T13:05:07;8.20;99.90
30097;DHT22;16915;51.466;3.610;2024-02-23T13:07:32;8.10;99.90
30097;DHT22;16915;51.466;3.610;2024-02-23T13:09:58;8.10;99.90
30097;DHT22;16915;51.466;3.610;2024-02-23T13:12:23;8.10;99.90
30097;DHT22;16915;51.466;3.610;2024-02-23T13:14:51;8.10;99.90
30097;DHT22;16915;51.466;3.610;2024-02-23T13:17:16;8.20;99.90
30097;DHT22;16915;51.466;3.610;2024-02-23T13:19:43;8.20;99.90
30097;DHT22;16915;51.466;3.610;2024-02-23T13:22:08;8.30;99.90
30097;DHT22;16915;51.466;3.610;2024-02-23T13:24:34;8.50;99.90
30097;DHT22;16915;51.466;3.610;2024-02-23T13:27:00;8.60;99.90
30097;DHT22;16915;51.466;3.610;2024-02-23T13:29:26;8.70;99.90
30097;DHT22;16915;51.466;3.610;2024-02-23T13:31:51;8.80;99.90
30097;DHT22;16915;51.466;3.610;2024-02-23T13:34:17;9.10;99.90
30097;DHT22;16915;51.466;3.610;2024-02-23T13:36:43;9.50;99.90
30097;DHT22;16915;51.466;3.610;2024-02-23T13:39:09;9.80;99.90
30097;DHT22;16915;51.466;3.610;2024-02-23T13:41:35;10.10;99.90
30097;DHT22;16915;51.466;3.610;2024-02-23T13:44:00;10.60;99.90
30097;DHT22;16915;51.466;3.610;2024-02-23T13:46:26;10.60;99.90
30097;DHT22;16915;51.466;3.610;2024-02-23T13:49:03;10.50;99.90
30097;DHT22;16915;51.466;3.610;2024-02-23T13:51:29;10.60;99.90
30097;DHT22;16915;51.466;3.610;2024-02-23T13:53:55;10.40;99.90
30097;DHT22;16915;51.466;3.610;2024-02-23T13:56:21;10.00;99.90
30097;DHT22;16915;51.466;3.610;2024-02-23T13:58:46;9.50;99.90
30097;DHT22;16915;51.466;3.610;2024-02-23T14:01:15;9.30;99.90
30097;DHT22;16915;51.466;3.610;2024-02-23T14:03:40;9.00;99.90
30097;DHT22;16915;51.466;3.610;2024-02-23T14:06:06;8.80;99.90
30097;DHT22;16915;51.466;3.610;2024-02-23T14:08:32;8.70;99.90
30097;DHT22;16915;51.466;3.610;2024-02-23T14:11:00;8.60;99.90
30097;DHT22;16915;51.466;3.610;2024-02-23T14:13:26;8.50;99.90
30097;DHT22;16915;51.466;3.610;2024-02-23T14:15:52;8.40;99.90
30097;DHT22;16915;51.466;3.610;2024-02-23T14:18:17;8.30;99.90
30097;DHT22;16915;51.466;3.610;2024-02-23T14:20:43;8.20;99.90
30097;DHT22;16915;51.466;3.610;2024-02-23T14:23:09;8.10;99.90
30097;DHT22;16915;51.466;3.610;2024-02-23T14:25:34;7.90;99.90
30097;DHT22;16915;51.466;3.610;2024-02-23T14:28:00;7.80;99.90
30097;DHT22;16915;51.466;3.610;2024-02-23T14:30:25;7.70;99.90
30097;DHT22;16915;51.466;3.610;2024-02-23T14:32:51;7.70;99.90
30097;DHT22;16915;51.466;3.610;2024-02-23T14:35:17;7.60;99.90
30097;DHT22;16915;51.466;3.610;2024-02-23T14:37:42;7.60;99.90
30097;DHT22;16915;51.466;3.610;2024-02-23T14:40:08;7.60;99.90
30097;DHT22;16915;51.466;3.610;2024-02-23T14:42:34;7.60;99.90
30097;DHT22;16915;51.466;3.610;2024-02-23T14:44:59;7.80;99.90
30097;DHT22;16915;51.466;3.610;2024-02-23T14:47:25;7.80;99.90
30097;DHT22;16915;51.466;3.610;2024-02-23T14:49:51;7.90;99.90
30097;DHT22;16915;51.466;3.610;2024-02-23T14:52:16;7.80;99.90
30097;DHT22;16915;51.466;3.610;2024-02-23T14:54:42;7.80;99.90
30097;DHT22;16915;51.466;3.610;2024-02-23T14:57:07;7.80;99.90
30097;DHT22;16915;51.466;3.610;2024-02-23T14:59:33;7.80;99.90
30097;DHT22;16915;51.466;3.610;2024-02-23T15:02:05;7.70;99.90
30097;DHT22;16915;51.466;3.610;2024-02-23T15:04:31;7.60;99.90
30097;DHT22;16915;51.466;3.610;2024-02-23T15:06:57;7.40;99.90
30097;DHT22;16915;51.466;3.610;2024-02-23T15:09:22;7.20;99.90
30097;DHT22;16915;51.466;3.610;2024-02-23T15:11:48;7.00;99.90
30097;DHT22;16915;51.466;3.610;2024-02-23T15:14:14;6.90;99.90
30097;DHT22;16915;51.466;3.610;2024-02-23T15:16:40;6.90;99.90
30097;DHT22;16915;51.466;3.610;2024-02-23T15:19:06;6.90;99.90
30097;DHT22;16915;51.466;3.610;2024-02-23T15:21:32;6.90;99.90
30097;DHT22;16915;51.466;3.610;2024-02-23T15:23:57;6.90;99.90
30097;DHT22;16915;51.466;3.610;2024-02-23T15:26:23;7.00;99.90
30097;DHT22;16915;51.466;3.610;2024-02-23T15:28:49;7.00;99.90
30097;DHT22;16915;51.466;3.610;2024-02-23T15:31:14;7.00;99.90
30097;DHT22;16915;51.466;3.610;2024-02-23T15:33:40;6.90;99.90
30097;DHT22;16915;51.466;3.610;2024-02-23T15:36:06;6.80;99.90
30097;DHT22;16915;51.466;3.610;2024-02-23T15:38:36;6.70;99.90